sensor_id;sensor_type;location;lat;lon;timestamp;temperature;humidity
10062;DHT22;5070;52.382;5.270;2024-02-23T00:00:39;23.50;58.30
10062;DHT22;5070;52.382;5.270;2024-02-23T00:03:07;23.50;58.20
10062;DHT22;5070;52.382;5.270;2024-02-23T00:05:37;23.50;58.10
10062;DHT22;5070;52.382;5.270;2024-02-23T00:08:06;23.50;58.20
10062;DHT22;5070;52.382;5.270;2024-02-23T00:10:37;23.50;58.00
10062;DHT22;5070;52.382;5.270;2024-02-23T00:13:05;23.50;58.00
10062;DHT22;5070;52.382;5.270;2024-02-23T00:15:34;23.50;57.80
10062;DHT22;5070;52.382;5.270;2024-02-23T00:18:02;23.40;57.80
10062;DHT22;5070;52.382;5.270;2024-02-23T00:20:32;23.40;57.70
10062;DHT22;5070;52.382;5.270;2024-02-23T00:23:01;23.40;57.70
10062;DHT22;5070;52.382;5.270;2024-02-23T00:25:29;23.40;57.50
10062;DHT22;5070;52.382;5.270;2024-02-23T00:27:58;23.40;57.40
10062;DHT22;5070;52.382;5.270;2024-02-23T00:30:26;23.40;57.30
10062;DHT22;5070;52.382;5.270;2024-02-23T00:32:54;23.40;57.30
10062;DHT22;5070;52.382;5.270;2024-02-23T00:35:23;23.40;57.30
10062;DHT22;5070;52.382;5.270;2024-02-23T00:37:51;23.40;57.30
10062;DHT22;5070;52.382;5.270;2024-02-23T00:40:19;23.40;57.20
10062;DHT22;5070;52.382;5.270;2024-02-23T00:42:47;23.40;57.30
10062;DHT22;5070;52.382;5.270;2024-02-23T00:45:16;23.40;57.30
10062;DHT22;5070;52.382;5.270;2024-02-23T00:47:44;23.40;57.20
10062;DHT22;5070;52.382;5.270;2024-02-23T00:50:13;23.30;57.20
10062;DHT22;5070;52.382;5.270;2024-02-23T00:52:42;23.30;57.20
10062;DHT22;5070;52.382;5.270;2024-02-23T00:55:10;23.30;57.20
10062;DHT22;5070;52.382;5.270;2024-02-23T00:57:38;23.30;57.00
10062;DHT22;5070;52.382;5.270;2024-02-23T01:00:07;23.30;57.00
10062;DHT22;5070;52.382;5.270;2024-02-23T01:02:37;23.30;56.60
10062;DHT22;5070;52.382;5.270;2024-02-23T01:05:07;23.30;56.60
10062;DHT22;5070;52.382;5.270;2024-02-23T01:07:36;23.30;56.30
10062;DHT22;5070;52.382;5.270;2024-02-23T01:10:05;23.20;56.20
10062;DHT22;5070;52.382;5.270;2024-02-23T01:12:34;23.20;56.10
10062;DHT22;5070;52.382;5.270;2024-02-23T01:15:02;23.20;56.10
10062;DHT22;5070;52.382;5.270;2024-02-23T01:17:32;23.20;55.90
10062;DHT22;5070;52.382;5.270;2024-02-23T01:20:01;23.20;55.90
10062;DHT22;5070;52.382;5.270;2024-02-23T01:22:29;23.20;55.70
10062;DHT22;5070;52.382;5.270;2024-02-23T01:24:57;23.20;55.70
10062;DHT22;5070;52.382;5.270;2024-02-23T01:27:25;23.20;55.70
10062;DHT22;5070;52.382;5.270;2024-02-23T01:29:54;23.10;55.60
10062;DHT22;5070;52.382;5.270;2024-02-23T01:32:22;23.10;55.50
10062;DHT22;5070;52.382;5.270;2024-02-23T01:34:50;23.10;55.50
10062;DHT22;5070;52.382;5.270;2024-02-23T01:37:20;23.10;55.50
10062;DHT22;5070;52.382;5.270;2024-02-23T01:39:51;23.10;55.40
10062;DHT22;5070;52.382;5.270;2024-02-23T01:42:19;23.10;55.40
10062;DHT22;5070;52.382;5.270;2024-02-23T01:44:47;23.00;55.30
10062;DHT22;5070;52.382;5.270;2024-02-23T01:47:16;23.00;55.30
10062;DHT22;5070;52.382;5.270;2024-02-23T01:49:44;23.00;55.30
10062;DHT22;5070;52.382;5.270;2024-02-23T01:52:13;23.00;55.30
10062;DHT22;5070;52.382;5.270;2024-02-23T01:54:43;23.00;55.40
10062;DHT22;5070;52.382;5.270;2024-02-23T01:57:11;23.00;55.40
10062;DHT22;5070;52.382;5.270;2024-02-23T02:00:01;22.90;55.40
10062;DHT22;5070;52.382;5.270;2024-02-23T02:02:36;22.90;55.30
10062;DHT22;5070;52.382;5.270;2024-02-23T02:05:04;22.90;55.40
10062;DHT22;5070;52.382;5.270;2024-02-23T02:07:34;22.80;55.60
10062;DHT22;5070;52.382;5.270;2024-02-23T02:10:05;22.80;55.60
10062;DHT22;5070;52.382;5.270;2024-02-23T02:12:33;22.80;55.70
10062;DHT22;5070;52.382;5.270;2024-02-23T02:15:02;22.80;55.80
10062;DHT22;5070;52.382;5.270;2024-02-23T02:17:30;22.80;55.80
10062;DHT22;5070;52.382;5.270;2024-02-23T02:20:04;22.80;55.70
10062;DHT22;5070;52.382;5.270;2024-02-23T02:22:33;22.80;55.70
10062;DHT22;5070;52.382;5.270;2024-02-23T02:25:01;22.70;55.70
10062;DHT22;5070;52.382;5.270;2024-02-23T02:27:30;22.70;55.80
10062;DHT22;5070;52.382;5.270;2024-02-23T02:29:58;22.70;55.80
10062;DHT22;5070;52.382;5.270;2024-02-23T02:32:27;22.70;55.90
10062;DHT22;5070;52.382;5.270;2024-02-23T02:34:56;22.70;56.00
10062;DHT22;5070;52.382;5.270;2024-02-23T02:37:24;22.60;56.10
10062;DHT22;5070;52.382;5.270;2024-02-23T02:39:52;22.60;56.20
10062;DHT22;5070;52.382;5.270;2024-02-23T02:42:20;22.60;56.30
10062;DHT22;5070;52.382;5.270;2024-02-23T02:44:49;22.60;56.20
10062;DHT22;5070;52.382;5.270;2024-02-23T02:47:17;22.60;56.30
10062;DHT22;5070;52.382;5.270;2024-02-23T02:49:45;22.50;56.40
10062;DHT22;5070;52.382;5.270;2024-02-23T02:52:13;22.50;56.30
10062;DHT22;5070;52.382;5.270;2024-02-23T02:54:41;22.50;56.30
10062;DHT22;5070;52.382;5.270;2024-02-23T02:57:09;22.40;56.30
10062;DHT22;5070;52.382;5.270;2024-02-23T02:59:37;22.40;56.20
10062;DHT22;5070;52.382;5.270;2024-02-23T03:02:06;22.40;56.10
10062;DHT22;5070;52.382;5.270;2024-02-23T03:04:34;22.40;56.10
10062;DHT22;5070;52.382;5.270;2024-02-23T03:07:02;22.30;55.90
10062;DHT22;5070;52.382;5.270;2024-02-23T03:09:30;22.30;55.90
10062;DHT22;5070;52.382;5.270;2024-02-23T03:11:58;22.30;55.60
10062;DHT22;5070;52.382;5.270;2024-02-23T03:14:26;22.30;55.50
10062;DHT22;5070;52.382;5.270;2024-02-23T03:16:54;22.30;55.60
10062;DHT22;5070;52.382;5.270;2024-02-23T03:19:24;22.20;55.50
10062;DHT22;5070;52.382;5.270;2024-02-23T03:21:52;22.20;55.60
10062;DHT22;5070;52.382;5.270;2024-02-23T03:24:20;22.20;55.50
10062;DHT22;5070;52.382;5.270;2024-02-23T03:26:48;22.10;55.30
10062;DHT22;5070;52.382;5.270;2024-02-23T03:29:16;22.10;55.40
10062;DHT22;5070;52.382;5.270;2024-02-23T03:31:44;22.10;55.40
10062;DHT22;5070;52.382;5.270;2024-02-23T03:34:12;22.10;55.30
10062;DHT22;5070;52.382;5.270;2024-02-23T03:36:42;22.00;55.10
10062;DHT22;5070;52.382;5.270;2024-02-23T03:39:10;22.00;55.10
10062;DHT22;5070;52.382;5.270;2024-02-23T03:41:38;22.00;55.10
10062;DHT22;5070;52.382;5.270;2024-02-23T03:44:06;22.00;55.10
10062;DHT22;5070;52.382;5.270;2024-02-23T03:46:33;21.90;55.10
10062;DHT22;5070;52.382;5.270;2024-02-23T03:49:01;21.90;55.00
10062;DHT22;5070;52.382;5.270;2024-02-23T03:51:29;21.90;55.00
10062;DHT22;5070;52.382;5.270;2024-02-23T03:54:01;21.90;54.90
10062;DHT22;5070;52.382;5.270;2024-02-23T03:56:29;21.90;54.90
10062;DHT22;5070;52.382;5.270;2024-02-23T03:58:57;21.90;54.80
10062;DHT22;5070;52.382;5.270;2024-02-23T04:01:25;21.90;54.80
10062;DHT22;5070;52.382;5.270;2024-02-23T04:03:53;21.80;54.80
10062;DHT22;5070;52.382;5.270;2024-02-23T04:06:21;21.80;54.80
10062;DHT22;5070;52.382;5.270;2024-02-23T04:08:49;21.80;54.70
10062;DHT22;5070;52.382;5.270;2024-02-23T04:11:18;21.80;54.80
10062;DHT22;5070;52.382;5.270;2024-02-23T04:13:47;21.70;54.70
10062;DHT22;5070;52.382;5.270;2024-02-23T04:16:18;21.70;54.70
10062;DHT22;5070;52.382;5.270;2024-02-23T04:18:46;21.70;54.70
10062;DHT22;5070;52.382;5.270;2024-02-23T04:21:14;21.60;54.80
10062;DHT22;5070;52.382;5.270;2024-02-23T04:23:43;21.60;54.70
10062;DHT22;5070;52.382;5.270;2024-02-23T04:26:11;21.60;54.80
10062;DHT22;5070;52.382;5.270;2024-02-23T04:28:41;21.60;54.70
10062;DHT22;5070;52.382;5.270;2024-02-23T04:31:09;21.50;54.70
10062;DHT22;5070;52.382;5.270;2024-02-23T04:33:37;21.50;54.60
10062;DHT22;5070;52.382;5.270;2024-02-23T04:36:06;21.50;54.70
10062;DHT22;5070;52.382;5.270;2024-02-23T04:38:34;21.40;54.60
10062;DHT22;5070;52.382;5.270;2024-02-23T04:41:03;21.40;54.60
10062;DHT22;5070;52.382;5.270;2024-02-23T04:43:32;21.40;54.60
10062;DHT22;5070;52.382;5.270;2024-02-23T04:46:01;21.40;54.60
10062;DHT22;5070;52.382;5.270;2024-02-23T04:48:29;21.30;54.50
10062;DHT22;5070;52.382;5.270;2024-02-23T04:50:58;21.30;54.50
10062;DHT22;5070;52.382;5.270;2024-02-23T04:53:27;21.30;54.50
10062;DHT22;5070;52.382;5.270;2024-02-23T04:55:55;21.30;54.50
10062;DHT22;5070;52.382;5.270;2024-02-23T04:58:23;21.30;54.50
10062;DHT22;5070;52.382;5.270;2024-02-23T05:00:51;21.30;54.50
10062;DHT22;5070;52.382;5.270;2024-02-23T05:03:20;21.20;54.40
10062;DHT22;5070;52.382;5.270;2024-02-23T05:05:48;21.20;54.40
10062;DHT22;5070;52.382;5.270;2024-02-23T05:08:20;21.20;54.40
10062;DHT22;5070;52.382;5.270;2024-02-23T05:10:51;21.10;54.30
10062;DHT22;5070;52.382;5.270;2024-02-23T05:13:19;21.20;54.30
10062;DHT22;5070;52.382;5.270;2024-02-23T05:15:47;21.10;54.20
10062;DHT22;5070;52.382;5.270;2024-02-23T05:18:15;21.10;54.30
10062;DHT22;5070;52.382;5.270;2024-02-23T05:20:44;21.10;54.30
10062;DHT22;5070;52.382;5.270;2024-02-23T05:23:12;21.00;54.40
10062;DHT22;5070;52.382;5.270;2024-02-23T05:25:42;21.00;54.20
10062;DHT22;5070;52.382;5.270;2024-02-23T05:28:10;21.00;54.20
10062;DHT22;5070;52.382;5.270;2024-02-23T05:30:38;21.00;54.20
10062;DHT22;5070;52.382;5.270;2024-02-23T05:33:06;21.00;54.30
10062;DHT22;5070;52.382;5.270;2024-02-23T05:35:34;21.00;54.20
10062;DHT22;5070;52.382;5.270;2024-02-23T05:38:03;20.90;54.30
10062;DHT22;5070;52.382;5.270;2024-02-23T05:40:33;20.90;54.30
10062;DHT22;5070;52.382;5.270;2024-02-23T05:43:01;20.90;54.20
10062;DHT22;5070;52.382;5.270;2024-02-23T05:45:29;20.90;54.30
10062;DHT22;5070;52.382;5.270;2024-02-23T05:47:57;20.80;54.20
10062;DHT22;5070;52.382;5.270;2024-02-23T05:50:25;20.80;54.40
10062;DHT22;5070;52.382;5.270;2024-02-23T05:52:53;20.80;54.50
10062;DHT22;5070;52.382;5.270;2024-02-23T05:55:22;20.80;54.60
10062;DHT22;5070;52.382;5.270;2024-02-23T05:57:50;20.90;54.70
10062;DHT22;5070;52.382;5.270;2024-02-23T06:00:19;21.00;54.60
10062;DHT22;5070;52.382;5.270;2024-02-23T06:02:48;21.00;54.40
10062;DHT22;5070;52.382;5.270;2024-02-23T06:05:16;21.10;54.20
10062;DHT22;5070;52.382;5.270;2024-02-23T06:07:44;21.10;54.10
10062;DHT22;5070;52.382;5.270;2024-02-23T06:10:12;21.20;54.00
10062;DHT22;5070;52.382;5.270;2024-02-23T06:12:41;21.20;53.90
10062;DHT22;5070;52.382;5.270;2024-02-23T06:15:09;21.30;54.30
10062;DHT22;5070;52.382;5.270;2024-02-23T06:17:38;21.30;54.70
10062;DHT22;5070;52.382;5.270;2024-02-23T06:20:08;21.30;54.90
10062;DHT22;5070;52.382;5.270;2024-02-23T06:22:36;21.30;54.70
10062;DHT22;5070;52.382;5.270;2024-02-23T06:25:05;21.30;54.60
10062;DHT22;5070;52.382;5.270;2024-02-23T06:27:33;21.30;54.60
10062;DHT22;5070;52.382;5.270;2024-02-23T06:30:02;21.30;54.20
10062;DHT22;5070;52.382;5.270;2024-02-23T06:32:30;21.30;53.90
10062;DHT22;5070;52.382;5.270;2024-02-23T06:34:59;21.30;53.90
10062;DHT22;5070;52.382;5.270;2024-02-23T06:37:27;21.30;54.00
10062;DHT22;5070;52.382;5.270;2024-02-23T06:39:55;21.30;54.10
10062;DHT22;5070;52.382;5.270;2024-02-23T06:42:23;21.30;54.60
10062;DHT22;5070;52.382;5.270;2024-02-23T06:44:51;21.20;54.70
10062;DHT22;5070;52.382;5.270;2024-02-23T06:47:22;21.20;54.40
10062;DHT22;5070;52.382;5.270;2024-02-23T06:49:50;21.20;55.20
10062;DHT22;5070;52.382;5.270;2024-02-23T06:52:19;21.20;54.90
10062;DHT22;5070;52.382;5.270;2024-02-23T06:54:46;21.20;54.30
10062;DHT22;5070;52.382;5.270;2024-02-23T06:57:15;21.30;55.50
10062;DHT22;5070;52.382;5.270;2024-02-23T06:59:43;21.30;55.40
10062;DHT22;5070;52.382;5.270;2024-02-23T07:02:11;21.30;55.00
10062;DHT22;5070;52.382;5.270;2024-02-23T07:04:40;21.40;55.20
10062;DHT22;5070;52.382;5.270;2024-02-23T07:07:08;21.40;55.50
10062;DHT22;5070;52.382;5.270;2024-02-23T07:09:38;21.40;55.90
10062;DHT22;5070;52.382;5.270;2024-02-23T07:12:07;21.30;55.00
10062;DHT22;5070;52.382;5.270;2024-02-23T07:14:37;21.30;55.20
10062;DHT22;5070;52.382;5.270;2024-02-23T07:17:05;21.30;55.70
10062;DHT22;5070;52.382;5.270;2024-02-23T07:19:33;21.20;56.40
10062;DHT22;5070;52.382;5.270;2024-02-23T07:22:02;21.20;56.40
10062;DHT22;5070;52.382;5.270;2024-02-23T07:24:30;21.10;57.10
10062;DHT22;5070;52.382;5.270;2024-02-23T07:26:58;21.10;57.30
10062;DHT22;5070;52.382;5.270;2024-02-23T07:29:26;21.10;57.20
10062;DHT22;5070;52.382;5.270;2024-02-23T07:31:54;21.10;56.80
10062;DHT22;5070;52.382;5.270;2024-02-23T07:34:23;21.10;56.70
10062;DHT22;5070;52.382;5.270;2024-02-23T07:36:52;21.10;56.60
10062;DHT22;5070;52.382;5.270;2024-02-23T07:39:21;21.10;56.50
10062;DHT22;5070;52.382;5.270;2024-02-23T07:41:49;21.00;56.40
10062;DHT22;5070;52.382;5.270;2024-02-23T07:44:18;21.00;56.20
10062;DHT22;5070;52.382;5.270;2024-02-23T07:46:46;21.00;56.10
10062;DHT22;5070;52.382;5.270;2024-02-23T07:49:14;21.00;55.90
10062;DHT22;5070;52.382;5.270;2024-02-23T07:51:42;20.90;55.80
10062;DHT22;5070;52.382;5.270;2024-02-23T07:54:10;20.90;55.80
10062;DHT22;5070;52.382;5.270;2024-02-23T07:56:39;20.90;55.90
10062;DHT22;5070;52.382;5.270;2024-02-23T07:59:07;20.80;55.70
10062;DHT22;5070;52.382;5.270;2024-02-23T08:01:35;20.80;55.70
10062;DHT22;5070;52.382;5.270;2024-02-23T08:04:03;20.80;55.70
10062;DHT22;5070;52.382;5.270;2024-02-23T08:06:31;20.80;55.70
10062;DHT22;5070;52.382;5.270;2024-02-23T08:08:59;20.80;55.60
10062;DHT22;5070;52.382;5.270;2024-02-23T08:11:27;20.70;55.50
10062;DHT22;5070;52.382;5.270;2024-02-23T08:13:58;20.70;55.50
10062;DHT22;5070;52.382;5.270;2024-02-23T08:16:26;20.70;55.80
10062;DHT22;5070;52.382;5.270;2024-02-23T08:18:54;20.70;55.40
10062;DHT22;5070;52.382;5.270;2024-02-23T08:21:22;20.60;55.90
10062;DHT22;5070;52.382;5.270;2024-02-23T08:23:50;20.60;55.40
10062;DHT22;5070;52.382;5.270;2024-02-23T08:26:18;20.60;55.40
10062;DHT22;5070;52.382;5.270;2024-02-23T08:28:46;20.60;55.40
10062;DHT22;5070;52.382;5.270;2024-02-23T08:31:16;20.60;55.40
10062;DHT22;5070;52.382;5.270;2024-02-23T08:33:44;20.50;55.30
10062;DHT22;5070;52.382;5.270;2024-02-23T08:36:12;20.50;55.40
10062;DHT22;5070;52.382;5.270;2024-02-23T08:38:40;20.50;55.30
10062;DHT22;5070;52.382;5.270;2024-02-23T08:41:08;20.50;55.50
10062;DHT22;5070;52.382;5.270;2024-02-23T08:43:36;20.40;55.40
10062;DHT22;5070;52.382;5.270;2024-02-23T08:46:05;20.40;55.40
10062;DHT22;5070;52.382;5.270;2024-02-23T08:48:37;20.40;55.50
10062;DHT22;5070;52.382;5.270;2024-02-23T08:51:07;20.40;55.60
10062;DHT22;5070;52.382;5.270;2024-02-23T08:53:35;20.40;55.70
10062;DHT22;5070;52.382;5.270;2024-02-23T08:56:04;20.50;55.80
10062;DHT22;5070;52.382;5.270;2024-02-23T08:58:32;20.60;55.80
10062;DHT22;5070;52.382;5.270;2024-02-23T09:01:04;20.60;56.20
10062;DHT22;5070;52.382;5.270;2024-02-23T09:03:32;20.60;55.90
10062;DHT22;5070;52.382;5.270;2024-02-23T09:06:02;20.60;56.00
10062;DHT22;5070;52.382;5.270;2024-02-23T09:08:31;20.60;56.00
10062;DHT22;5070;52.382;5.270;2024-02-23T09:10:59;20.50;56.00
10062;DHT22;5070;52.382;5.270;2024-02-23T09:13:27;20.50;56.00
10062;DHT22;5070;52.382;5.270;2024-02-23T09:15:57;20.40;55.90
10062;DHT22;5070;52.382;5.270;2024-02-23T09:18:25;20.40;55.80
10062;DHT22;5070;52.382;5.270;2024-02-23T09:20:53;20.40;55.70
10062;DHT22;5070;52.382;5.270;2024-02-23T09:23:22;20.40;55.80
10062;DHT22;5070;52.382;5.270;2024-02-23T09:25:50;20.30;55.70
10062;DHT22;5070;52.382;5.270;2024-02-23T09:28:18;20.30;55.70
10062;DHT22;5070;52.382;5.270;2024-02-23T09:30:47;20.30;55.70
10062;DHT22;5070;52.382;5.270;2024-02-23T09:33:18;20.30;55.70
10062;DHT22;5070;52.382;5.270;2024-02-23T09:35:46;20.30;55.80
10062;DHT22;5070;52.382;5.270;2024-02-23T09:38:14;20.30;55.70
10062;DHT22;5070;52.382;5.270;2024-02-23T09:40:43;20.30;55.70
10062;DHT22;5070;52.382;5.270;2024-02-23T09:43:12;20.20;55.70
10062;DHT22;5070;52.382;5.270;2024-02-23T09:45:42;20.20;55.70
10062;DHT22;5070;52.382;5.270;2024-02-23T09:48:10;20.20;55.70
10062;DHT22;5070;52.382;5.270;2024-02-23T09:50:40;20.20;55.70
10062;DHT22;5070;52.382;5.270;2024-02-23T09:53:11;20.20;55.60
10062;DHT22;5070;52.382;5.270;2024-02-23T09:55:44;20.20;55.60
10062;DHT22;5070;52.382;5.270;2024-02-23T09:58:13;20.10;55.60
10062;DHT22;5070;52.382;5.270;2024-02-23T10:00:43;20.10;55.60
10062;DHT22;5070;52.382;5.270;2024-02-23T10:03:11;20.10;55.60
10062;DHT22;5070;52.382;5.270;2024-02-23T10:05:39;20.10;55.70
10062;DHT22;5070;52.382;5.270;2024-02-23T10:08:08;20.10;56.10
10062;DHT22;5070;52.382;5.270;2024-02-23T10:10:39;20.10;56.00
10062;DHT22;5070;52.382;5.270;2024-02-23T10:13:10;20.10;56.00
10062;DHT22;5070;52.382;5.270;2024-02-23T10:15:38;20.10;56.00
10062;DHT22;5070;52.382;5.270;2024-02-23T10:18:21;20.20;56.20
10062;DHT22;5070;52.382;5.270;2024-02-23T10:20:49;20.30;56.20
10062;DHT22;5070;52.382;5.270;2024-02-23T10:23:19;20.30;56.20
10062;DHT22;5070;52.382;5.270;2024-02-23T10:25:47;20.40;56.40
10062;DHT22;5070;52.382;5.270;2024-02-23T10:28:18;20.40;56.30
10062;DHT22;5070;52.382;5.270;2024-02-23T10:30:49;20.50;56.10
10062;DHT22;5070;52.382;5.270;2024-02-23T10:33:19;20.50;56.30
10062;DHT22;5070;52.382;5.270;2024-02-23T10:35:56;20.50;56.40
10062;DHT22;5070;52.382;5.270;2024-02-23T10:38:26;20.50;56.50
10062;DHT22;5070;52.382;5.270;2024-02-23T10:40:55;20.50;56.00
10062;DHT22;5070;52.382;5.270;2024-02-23T10:43:29;20.50;56.30
10062;DHT22;5070;52.382;5.270;2024-02-23T10:45:59;20.40;55.90
10062;DHT22;5070;52.382;5.270;2024-02-23T10:48:29;20.40;55.90
10062;DHT22;5070;52.382;5.270;2024-02-23T10:51:04;20.40;55.80
10062;DHT22;5070;52.382;5.270;2024-02-23T10:53:33;20.30;55.80
10062;DHT22;5070;52.382;5.270;2024-02-23T10:56:03;20.30;55.70
10062;DHT22;5070;52.382;5.270;2024-02-23T10:58:33;20.30;55.80
10062;DHT22;5070;52.382;5.270;2024-02-23T11:01:04;20.30;55.80
10062;DHT22;5070;52.382;5.270;2024-02-23T11:03:37;20.30;55.70
10062;DHT22;5070;52.382;5.270;2024-02-23T11:06:06;20.20;55.70
10062;DHT22;5070;52.382;5.270;2024-02-23T11:08:35;20.20;55.70
10062;DHT22;5070;52.382;5.270;2024-02-23T11:11:10;20.20;55.70
10062;DHT22;5070;52.382;5.270;2024-02-23T11:13:44;20.20;55.70
10062;DHT22;5070;52.382;5.270;2024-02-23T11:16:21;20.20;55.70
10062;DHT22;5070;52.382;5.270;2024-02-23T11:18:49;20.20;55.80
10062;DHT22;5070;52.382;5.270;2024-02-23T11:21:34;20.20;55.80
10062;DHT22;5070;52.382;5.270;2024-02-23T11:24:03;20.30;56.30
10062;DHT22;5070;52.382;5.270;2024-02-23T11:26:32;20.30;56.40
10062;DHT22;5070;52.382;5.270;2024-02-23T11:29:11;20.40;56.50
10062;DHT22;5070;52.382;5.270;2024-02-23T11:31:46;20.40;56.30
10062;DHT22;5070;52.382;5.270;2024-02-23T11:34:14;20.40;56.30
10062;DHT22;5070;52.382;5.270;2024-02-23T11:36:51;20.50;56.30
10062;DHT22;5070;52.382;5.270;2024-02-23T11:39:20;20.50;56.20
10062;DHT22;5070;52.382;5.270;2024-02-23T11:41:48;20.50;55.90
10062;DHT22;5070;52.382;5.270;2024-02-23T11:44:21;20.50;55.60
10062;DHT22;5070;52.382;5.270;2024-02-23T11:46:49;20.40;55.40
10062;DHT22;5070;52.382;5.270;2024-02-23T11:49:17;20.40;55.50
10062;DHT22;5070;52.382;5.270;2024-02-23T11:51:45;20.40;55.50
10062;DHT22;5070;52.382;5.270;2024-02-23T11:54:13;20.30;55.40
10062;DHT22;5070;52.382;5.270;2024-02-23T11:56:42;20.30;55.40
10062;DHT22;5070;52.382;5.270;2024-02-23T11:59:10;20.30;55.40
10062;DHT22;5070;52.382;5.270;2024-02-23T12:01:39;20.30;55.40
10062;DHT22;5070;52.382;5.270;2024-02-23T12:04:07;20.20;55.40
10062;DHT22;5070;52.382;5.270;2024-02-23T12:06:36;20.20;55.40
10062;DHT22;5070;52.382;5.270;2024-02-23T12:09:04;20.20;55.50
10062;DHT22;5070;52.382;5.270;2024-02-23T12:11:32;20.30;55.50
10062;DHT22;5070;52.382;5.270;2024-02-23T12:14:00;20.30;55.50
10062;DHT22;5070;52.382;5.270;2024-02-23T12:16:29;20.30;55.50
10062;DHT22;5070;52.382;5.270;2024-02-23T12:18:58;20.30;55.50
10062;DHT22;5070;52.382;5.270;2024-02-23T12:21:28;20.20;55.40
10062;DHT22;5070;52.382;5.270;2024-02-23T12:23:56;20.20;55.40
10062;DHT22;5070;52.382;5.270;2024-02-23T12:26:26;20.20;55.50
10062;DHT22;5070;52.382;5.270;2024-02-23T12:29:00;20.20;55.60
10062;DHT22;5070;52.382;5.270;2024-02-23T12:31:29;20.20;55.50
10062;DHT22;5070;52.382;5.270;2024-02-23T12:33:58;20.20;56.70
10062;DHT22;5070;52.382;5.270;2024-02-23T12:36:26;20.20;58.30
10062;DHT22;5070;52.382;5.270;2024-02-23T12:38:54;20.30;57.60
10062;DHT22;5070;52.382;5.270;2024-02-23T12:41:22;20.30;57.00
10062;DHT22;5070;52.382;5.270;2024-02-23T12:43:50;20.30;56.90
10062;DHT22;5070;52.382;5.270;2024-02-23T12:46:20;20.30;56.60
10062;DHT22;5070;52.382;5.270;2024-02-23T12:48:48;20.30;56.90
10062;DHT22;5070;52.382;5.270;2024-02-23T12:51:18;20.30;56.70
10062;DHT22;5070;52.382;5.270;2024-02-23T12:53:46;20.40;56.20
10062;DHT22;5070;52.382;5.270;2024-02-23T12:56:14;20.40;56.00
10062;DHT22;5070;52.382;5.270;2024-02-23T12:58:43;20.40;55.90
10062;DHT22;5070;52.382;5.270;2024-02-23T13:01:11;20.50;56.00
10062;DHT22;5070;52.382;5.270;2024-02-23T13:03:42;20.50;56.20
10062;DHT22;5070;52.382;5.270;2024-02-23T13:06:10;20.40;56.70
10062;DHT22;5070;52.382;5.270;2024-02-23T13:08:41;20.40;56.20
10062;DHT22;5070;52.382;5.270;2024-02-23T13:11:09;20.40;56.00
10062;DHT22;5070;52.382;5.270;2024-02-23T13:13:37;20.40;55.90
10062;DHT22;5070;52.382;5.270;2024-02-23T13:16:10;20.40;55.80
10062;DHT22;5070;52.382;5.270;2024-02-23T13:18:44;20.40;55.80
10062;DHT22;5070;52.382;5.270;2024-02-23T13:21:15;20.30;55.70
10062;DHT22;5070;52.382;5.270;2024-02-23T13:23:44;20.30;55.70
10062;DHT22;5070;52.382;5.270;2024-02-23T13:26:12;20.30;55.70
10062;DHT22;5070;52.382;5.270;2024-02-23T13:28:42;20.30;55.70
10062;DHT22;5070;52.382;5.270;2024-02-23T13:31:11;20.30;55.70
10062;DHT22;5070;52.382;5.270;2024-02-23T13:33:40;20.30;55.80
10062;DHT22;5070;52.382;5.270;2024-02-23T13:36:08;20.30;55.70
10062;DHT22;5070;52.382;5.270;2024-02-23T13:38:36;20.30;56.20
10062;DHT22;5070;52.382;5.270;2024-02-23T13:41:07;20.30;55.60
10062;DHT22;5070;52.382;5.270;2024-02-23T13:43:36;20.30;55.60
10062;DHT22;5070;52.382;5.270;2024-02-23T13:46:06;20.20;55.60
10062;DHT22;5070;52.382;5.270;2024-02-23T13:48:40;20.20;55.60
10062;DHT22;5070;52.382;5.270;2024-02-23T13:51:09;20.20;55.50
10062;DHT22;5070;52.382;5.270;2024-02-23T13:53:37;20.20;55.50
10062;DHT22;5070;52.382;5.270;2024-02-23T13:56:08;20.10;55.50
10062;DHT22;5070;52.382;5.270;2024-02-23T13:58:41;20.10;55.50
10062;DHT22;5070;52.382;5.270;2024-02-23T14:01:10;20.10;55.40
10062;DHT22;5070;52.382;5.270;2024-02-23T14:03:38;20.10;55.40
10062;DHT22;5070;52.382;5.270;2024-02-23T14:06:06;20.10;55.40
10062;DHT22;5070;52.382;5.270;2024-02-23T14:08:36;20.10;55.40
10062;DHT22;5070;52.382;5.270;2024-02-23T14:11:05;20.10;55.40
10062;DHT22;5070;52.382;5.270;2024-02-23T14:13:34;20.00;55.40
10062;DHT22;5070;52.382;5.270;2024-02-23T14:16:03;20.00;55.40
10062;DHT22;5070;52.382;5.270;2024-02-23T14:18:32;20.00;55.30
10062;DHT22;5070;52.382;5.270;2024-02-23T14:21:04;20.00;55.30
10062;DHT22;5070;52.382;5.270;2024-02-23T14:23:32;20.00;55.30
10062;DHT22;5070;52.382;5.270;2024-02-23T14:26:00;20.00;55.40
10062;DHT22;5070;52.382;5.270;2024-02-23T14:28:29;20.00;55.30
10062;DHT22;5070;52.382;5.270;2024-02-23T14:30:58;20.00;55.30
10062;DHT22;5070;52.382;5.270;2024-02-23T14:33:26;20.00;55.40
10062;DHT22;5070;52.382;5.270;2024-02-23T14:35:54;20.00;55.40
10062;DHT22;5070;52.382;5.270;2024-02-23T14:38:27;20.00;55.30
10062;DHT22;5070;52.382;5.270;2024-02-23T14:40:55;20.00;55.30
10062;DHT22;5070;52.382;5.270;2024-02-23T14:43:23;20.00;55.30
10062;DHT22;5070;52.382;5.270;2024-02-23T14:45:51;19.90;55.20
10062;DHT22;5070;52.382;5.270;2024-02-23T14:48:22;19.90;55.20
10062;DHT22;5070;52.382;5.270;2024-02-23T14:50:50;19.90;55.30
10062;DHT22;5070;52.382;5.270;2024-02-23T14:53:19;19.90;55.20
10062;DHT22;5070;52.382;5.270;2024-02-23T14:55:47;19.90;55.30
10062;DHT22;5070;52.382;5.270;2024-02-23T14:58:15;19.80;55.70
10062;DHT22;5070;52.382;5.270;2024-02-23T15:00:45;19.90;55.80
10062;DHT22;5070;52.382;5.270;2024-02-23T15:03:14;19.90;56.50
10062;DHT22;5070;52.382;5.270;2024-02-23T15:05:43;19.90;55.80
10062;DHT22;5070;52.382;5.270;2024-02-23T15:08:11;19.90;56.00
10062;DHT22;5070;52.382;5.270;2024-02-23T15:10:39;20.00;56.30
10062;DHT22;5070;52.382;5.270;2024-02-23T15:13:08;20.00;56.80
10062;DHT22;5070;52.382;5.270;2024-02-23T15:15:36;20.10;56.60
10062;DHT22;5070;52.382;5.270;2024-02-23T15:18:07;20.10;56.10
10062;DHT22;5070;52.382;5.270;2024-02-23T15:20:35;20.10;55.90
10062;DHT22;5070;52.382;5.270;2024-02-23T15:23:05;20.20;55.80
10062;DHT22;5070;52.382;5.270;2024-02-23T15:25:33;20.20;55.50
10062;DHT22;5070;52.382;5.270;2024-02-23T15:28:05;20.20;55.40
10062;DHT22;5070;52.382;5.270;2024-02-23T15:30:33;20.20;55.50
10062;DHT22;5070;52.382;5.270;2024-02-23T15:33:02;20.30;55.50
10062;DHT22;5070;52.382;5.270;2024-02-23T15:35:30;20.30;55.30
10062;DHT22;5070;52.382;5.270;2024-02-23T15:37:58;20.40;55.30
10062;DHT22;5070;52.382;5.270;2024-02-23T15:40:28;20.40;55.20
10062;DHT22;5070;52.382;5.270;2024-02-23T15:42:56;20.40;55.20
10062;DHT22;5070;52.382;5.270;2024-02-23T15:45:26;20.40;55.20
10062;DHT22;5070;52.382;5.270;2024-02-23T15:48:00;20.50;55.20
10062;DHT22;5070;52.382;5.270;2024-02-23T15:50:29;20.50;55.10
10062;DHT22;5070;52.382;5.270;2024-02-23T15:53:18;20.50;55.00
10062;DHT22;5070;52.382;5.270;2024-02-23T15:55:47;20.60;55.00